Time;durP1;ratioP1;P1;durP2;ratioP2;P2;SDS_P1;SDS_P2;PMS_P1;PMS_P2;Temp;Humidity;BMP_temperature;BMP_pressure;BME280_temperature;BME280_humidity;BME280_pressure;Samples;Min_cycle;Max_cycle;Signal;HPM_P1;HPM_P2
2022/09/20 00:00:05;;;;;;;;;;;12.10;90.10;;;;;;5005169;28;19929;-73
2022/09/20 00:02:33;;;;;;;;;;;12.10;90.10;;;;;;5024890;28;20308;-75
2022/09/20 00:04:59;;;;;;;;;;;12.00;90.10;;;;;;5020741;28;20389;-76
2022/09/20 00:07:26;;;;;;;;;;;12.00;90.00;;;;;;5024591;28;20300;-74
2022/09/20 00:09:52;;;;;;;;;;;12.00;90.00;;;;;;5019673;28;19940;-75
2022/09/20 00:12:19;;;;;;;;;;;12.00;90.00;;;;;;5022790;28;19936;-74
2022/09/20 00:14:45;;;;;;;;;;;11.90;90.00;;;;;;5023278;28;19975;-75
2022/09/20 00:17:12;;;;;;;;;;;11.90;90.00;;;;;;5028492;28;19936;-77
2022/09/20 00:19:40;;;;;;;;;;;11.90;90.00;;;;;;5019370;28;20327;-75
2022/09/20 00:22:06;;;;;;;;;;;11.90;90.10;;;;;;5027659;28;19929;-74
2022/09/20 00:24:35;;;;;;;;;;;11.90;90.10;;;;;;5025555;28;19925;-75
2022/09/20 00:27:01;;;;;;;;;;;11.90;90.20;;;;;;5023981;28;19987;-75
2022/09/20 00:29:28;;;;;;;;;;;11.90;90.20;;;;;;5026692;28;19951;-76
2022/09/20 00:31:55;;;;;;;;;;;11.90;90.20;;;;;;5018741;28;19940;-73
2022/09/20 00:37:07;;;;;;;;;;;11.90;90.20;;;;;;5023954;28;19978;-75
2022/09/20 00:39:33;;;;;;;;;;;11.90;90.20;;;;;;5020378;28;20810;-75
2022/09/20 00:42:00;;;;;;;;;;;11.90;90.30;;;;;;5023296;28;19933;-75
2022/09/20 00:44:43;;;;;;;;;;;11.90;90.30;;;;;;5018521;28;19933;-73
2022/09/20 00:47:13;;;;;;;;;;;11.90;90.30;;;;;;5022785;28;19925;-75
2022/09/20 00:49:39;;;;;;;;;;;11.80;90.30;;;;;;5021724;28;20387;-74
2022/09/20 00:52:07;;;;;;;;;;;11.80;90.30;;;;;;5021476;28;20432;-75
2022/09/20 00:54:34;;;;;;;;;;;11.80;90.30;;;;;;5020064;28;19929;-76
2022/09/20 00:57:00;;;;;;;;;;;11.80;90.30;;;;;;5019514;28;19933;-75
2022/09/20 00:59:30;;;;;;;;;;;11.80;90.30;;;;;;5018955;28;19929;-75
2022/09/20 01:01:59;;;;;;;;;;;11.80;90.40;;;;;;5018042;28;19968;-75
2022/09/20 01:04:27;;;;;;;;;;;11.80;90.40;;;;;;5023034;28;20543;-74
2022/09/20 01:06:55;;;;;;;;;;;11.80;90.40;;;;;;5022843;28;19937;-75
2022/09/20 01:09:23;;;;;;;;;;;11.80;90.40;;;;;;5021757;28;19936;-76
2022/09/20 01:11:50;;;;;;;;;;;11.80;90.40;;;;;;5025022;28;20060;-76
2022/09/20 01:14:17;;;;;;;;;;;11.80;90.40;;;;;;5023925;28;20003;-76
2022/09/20 01:16:44;;;;;;;;;;;11.70;90.40;;;;;;5021141;28;19933;-74
2022/09/20 01:19:15;;;;;;;;;;;11.70;90.40;;;;;;5021259;28;19928;-74
2022/09/20 01:21:42;;;;;;;;;;;11.70;90.40;;;;;;5023559;28;19937;-75
2022/09/20 01:24:12;;;;;;;;;;;11.80;90.40;;;;;;5016176;28;19983;-76
2022/09/20 01:27:03;;;;;;;;;;;11.70;90.40;;;;;;5023153;28;19925;-75
2022/09/20 01:29:36;;;;;;;;;;;11.70;90.40;;;;;;5009593;28;19929;-75
2022/09/20 01:32:05;;;;;;;;;;;11.70;90.30;;;;;;5014199;28;20348;-75
2022/09/20 01:34:33;;;;;;;;;;;11.70;90.40;;;;;;5008534;28;19925;-77
2022/09/20 01:37:04;;;;;;;;;;;11.70;90.30;;;;;;5004265;28;19929;-76
2022/09/20 01:39:36;;;;;;;;;;;11.70;90.30;;;;;;5001432;28;19926;-75
2022/09/20 01:42:05;;;;;;;;;;;11.70;90.20;;;;;;5003695;28;20440;-76
2022/09/20 01:44:36;;;;;;;;;;;11.70;90.10;;;;;;5008818;28;20723;-75
2022/09/20 01:47:06;;;;;;;;;;;11.60;90.10;;;;;;5003140;28;19936;-73
2022/09/20 01:49:36;;;;;;;;;;;11.70;90.20;;;;;;5002929;28;19929;-74
2022/09/20 01:52:12;;;;;;;;;;;11.70;90.20;;;;;;5008692;28;19984;-75
2022/09/20 01:54:56;;;;;;;;;;;11.60;90.20;;;;;;5004065;28;19937;-75
2022/09/20 01:57:38;;;;;;;;;;;11.60;90.20;;;;;;4999828;28;19933;-75
2022/09/20 02:00:08;;;;;;;;;;;11.60;90.20;;;;;;5002260;28;20308;-73
2022/09/20 02:02:51;;;;;;;;;;;11.70;90.30;;;;;;5009581;28;20304;-73
2022/09/20 02:05:34;;;;;;;;;;;11.60;90.30;;;;;;5003051;28;19999;-74
2022/09/20 02:08:08;;;;;;;;;;;11.60;90.20;;;;;;5001472;28;19933;-74
2022/09/20 02:10:41;;;;;;;;;;;11.60;90.20;;;;;;5003724;28;20016;-72
2022/09/20 02:13:10;;;;;;;;;;;11.60;90.20;;;;;;5003289;28;19925;-75
2022/09/20 02:15:52;;;;;;;;;;;11.60;90.20;;;;;;5003307;28;19937;-75
2022/09/20 02:18:25;;;;;;;;;;;11.60;90.20;;;;;;5000252;28;19989;-76
2022/09/20 02:20:56;;;;;;;;;;;11.60;90.20;;;;;;5003534;28;19929;-75
2022/09/20 02:23:32;;;;;;;;;;;11.60;90.20;;;;;;5011110;28;19930;-74
2022/09/20 02:26:11;;;;;;;;;;;11.60;90.20;;;;;;5004316;28;20382;-76
2022/09/20 02:28:48;;;;;;;;;;;11.60;90.20;;;;;;5015066;28;19940;-76
2022/09/20 02:31:21;;;;;;;;;;;11.60;90.20;;;;;;5007637;28;19947;-73
2022/09/20 02:34:05;;;;;;;;;;;11.60;90.30;;;;;;5000351;28;19975;-73
2022/09/20 02:36:40;;;;;;;;;;;11.60;90.30;;;;;;4962869;28;20266;-76
2022/09/20 02:39:10;;;;;;;;;;;11.60;90.30;;;;;;5005321;28;19930;-74
2022/09/20 02:41:45;;;;;;;;;;;11.60;90.30;;;;;;5005487;28;19929;-75
2022/09/20 02:44:18;;;;;;;;;;;11.60;90.30;;;;;;5003886;28;19929;-75
2022/09/20 02:46:50;;;;;;;;;;;11.60;90.30;;;;;;5017321;28;19933;-75
2022/09/20 02:49:22;;;;;;;;;;;11.60;90.30;;;;;;5023213;28;19932;-75
2022/09/20 02:51:51;;;;;;;;;;;11.60;90.30;;;;;;5028263;28;19995;-74
2022/09/20 02:54:22;;;;;;;;;;;11.60;90.20;;;;;;5022240;28;19933;-78
2022/09/20 02:56:52;;;;;;;;;;;11.60;90.20;;;;;;5016820;28;19960;-75
2022/09/20 02:59:24;;;;;;;;;;;11.60;90.20;;;;;;5024045;28;19937;-76
2022/09/20 03:02:00;;;;;;;;;;;11.60;90.20;;;;;;5023820;28;19929;-74
2022/09/20 03:04:33;;;;;;;;;;;11.60;90.20;;;;;;5033630;28;20585;-74
2022/09/20 03:07:02;;;;;;;;;;;11.50;90.10;;;;;;5023416;28;19929;-76
2022/09/20 03:09:33;;;;;;;;;;;11.60;90.10;;;;;;5036498;28;19979;-74
2022/09/20 03:12:02;;;;;;;;;;;11.60;90.10;;;;;;5017532;28;20290;-76
2022/09/20 03:14:31;;;;;;;;;;;11.60;90.10;;;;;;5029212;28;19929;-74
2022/09/20 03:17:05;;;;;;;;;;;11.50;90.10;;;;;;5019020;28;19936;-74
2022/09/20 03:19:38;;;;;;;;;;;11.50;90.10;;;;;;5018387;28;19937;-75
2022/09/20 03:22:09;;;;;;;;;;;11.50;90.10;;;;;;5026164;28;20297;-74
2022/09/20 03:24:41;;;;;;;;;;;11.60;90.10;;;;;;5028375;28;19929;-74
2022/09/20 03:27:14;;;;;;;;;;;11.50;90.10;;;;;;5029886;28;20019;-74
2022/09/20 03:29:46;;;;;;;;;;;11.50;90.20;;;;;;5018628;28;19929;-75
2022/09/20 03:32:22;;;;;;;;;;;11.50;90.10;;;;;;5010690;28;19934;-74
2022/09/20 03:34:52;;;;;;;;;;;11.50;90.20;;;;;;5006805;28;19940;-75
2022/09/20 03:37:30;;;;;;;;;;;11.50;90.20;;;;;;5006210;28;19936;-74
2022/09/20 03:40:15;;;;;;;;;;;11.50;90.20;;;;;;5004405;28;20383;-74
2022/09/20 03:42:44;;;;;;;;;;;11.50;90.30;;;;;;5005278;28;19929;-74
2022/09/20 03:45:22;;;;;;;;;;;11.50;90.30;;;;;;5007765;28;19980;-75
2022/09/20 03:48:01;;;;;;;;;;;11.50;90.30;;;;;;5005658;28;19933;-74
2022/09/20 03:50:35;;;;;;;;;;;11.50;90.30;;;;;;5002036;28;19930;-72
2022/09/20 03:53:13;;;;;;;;;;;11.50;90.30;;;;;;5009399;28;19955;-73
2022/09/20 03:55:56;;;;;;;;;;;11.50;90.40;;;;;;5000285;28;19930;-74
2022/09/20 03:58:27;;;;;;;;;;;11.50;90.30;;;;;;5005052;28;19941;-72
2022/09/20 04:01:05;;;;;;;;;;;11.40;90.20;;;;;;5007286;28;20020;-74
2022/09/20 04:03:44;;;;;;;;;;;11.50;90.30;;;;;;5004769;28;20003;-75
2022/09/20 04:06:22;;;;;;;;;;;11.40;90.20;;;;;;4999846;28;20024;-74
2022/09/20 04:08:56;;;;;;;;;;;11.40;90.20;;;;;;5008084;28;19941;-74
2022/09/20 04:11:26;;;;;;;;;;;11.40;90.20;;;;;;5005310;28;19929;-75
2022/09/20 04:13:55;;;;;;;;;;;11.40;90.30;;;;;;5005346;28;19936;-74
2022/09/20 04:16:32;;;;;;;;;;;11.40;90.20;;;;;;5006161;28;20020;-76
2022/09/20 04:19:03;;;;;;;;;;;11.40;90.30;;;;;;5002865;28;19963;-75
2022/09/20 04:21:33;;;;;;;;;;;11.30;90.30;;;;;;5003024;28;19929;-73
2022/09/20 04:24:02;;;;;;;;;;;11.40;90.30;;;;;;5009384;28;19929;-76
2022/09/20 04:26:30;;;;;;;;;;;11.30;90.30;;;;;;5002720;28;19929;-76
2022/09/20 04:29:00;;;;;;;;;;;11.30;90.40;;;;;;5005831;28;19933;-75
2022/09/20 04:31:33;;;;;;;;;;;11.30;90.30;;;;;;5007670;28;19925;-75
2022/09/20 04:34:01;;;;;;;;;;;11.30;90.30;;;;;;5008289;28;19926;-77
2022/09/20 04:36:34;;;;;;;;;;;11.30;90.30;;;;;;5011873;28;19995;-74
2022/09/20 04:39:11;;;;;;;;;;;11.30;90.40;;;;;;5010901;28;19925;-74
2022/09/20 04:41:53;;;;;;;;;;;11.20;90.40;;;;;;5006812;28;20692;-76
2022/09/20 04:44:40;;;;;;;;;;;11.30;90.50;;;;;;4998833;28;19933;-71
2022/09/20 04:47:24;;;;;;;;;;;11.20;90.50;;;;;;5005211;28;19933;-74
2022/09/20 04:50:06;;;;;;;;;;;11.20;90.50;;;;;;5004926;28;19972;-72
2022/09/20 04:52:52;;;;;;;;;;;11.20;90.40;;;;;;5004678;28;19936;-77
2022/09/20 04:55:37;;;;;;;;;;;11.20;90.50;;;;;;4999474;28;20221;-72
2022/09/20 04:58:23;;;;;;;;;;;11.10;90.30;;;;;;4997268;28;19933;-75
2022/09/20 05:00:59;;;;;;;;;;;11.20;90.40;;;;;;5008536;28;19936;-75
2022/09/20 05:03:41;;;;;;;;;;;11.20;90.40;;;;;;5021124;28;19946;-74
2022/09/20 05:06:20;;;;;;;;;;;11.10;90.40;;;;;;5019660;28;19928;-76
2022/09/20 05:09:05;;;;;;;;;;;11.10;90.50;;;;;;5022774;28;19929;-74
2022/09/20 05:11:42;;;;;;;;;;;11.10;90.50;;;;;;5022327;28;20011;-75
2022/09/20 05:14:23;;;;;;;;;;;11.10;90.50;;;;;;5026086;28;19964;-75
2022/09/20 05:17:01;;;;;;;;;;;11.10;90.50;;;;;;5026917;28;19955;-76
2022/09/20 05:19:31;;;;;;;;;;;11.00;90.60;;;;;;5022752;28;20822;-74
2022/09/20 05:22:09;;;;;;;;;;;11.10;90.50;;;;;;5021908;28;19975;-74
2022/09/20 05:24:42;;;;;;;;;;;11.00;90.50;;;;;;5024942;28;19975;-77
2022/09/20 05:27:18;;;;;;;;;;;11.00;90.80;;;;;;5023841;28;19932;-75
2022/09/20 05:29:49;;;;;;;;;;;11.00;90.50;;;;;;5018843;28;19972;-75
2022/09/20 05:32:22;;;;;;;;;;;10.90;90.50;;;;;;5021898;28;19937;-75
2022/09/20 05:34:52;;;;;;;;;;;11.00;90.50;;;;;;5019605;28;19933;-73
2022/09/20 05:37:25;;;;;;;;;;;10.90;90.50;;;;;;5021478;28;19945;-73
2022/09/20 05:39:54;;;;;;;;;;;11.00;90.60;;;;;;5024375;28;19929;-73
2022/09/20 05:42:27;;;;;;;;;;;10.90;90.60;;;;;;5019716;28;19936;-72
2022/09/20 05:44:57;;;;;;;;;;;10.90;90.60;;;;;;5025309;28;19929;-76
2022/09/20 05:47:26;;;;;;;;;;;10.90;90.60;;;;;;5023686;28;20464;-75
2022/09/20 05:49:59;;;;;;;;;;;10.90;90.60;;;;;;5026620;28;19940;-72
2022/09/20 05:52:32;;;;;;;;;;;10.90;90.60;;;;;;5022980;28;19983;-74
2022/09/20 05:55:19;;;;;;;;;;;10.90;90.70;;;;;;5024419;28;19933;-75
2022/09/20 05:57:56;;;;;;;;;;;10.80;90.60;;;;;;5021958;28;20015;-74
2022/09/20 06:00:26;;;;;;;;;;;10.80;90.70;;;;;;5023797;28;20404;-74
2022/09/20 06:02:57;;;;;;;;;;;10.80;90.70;;;;;;5025316;28;19929;-75
2022/09/20 06:05:29;;;;;;;;;;;10.80;90.70;;;;;;5027597;28;19940;-73
2022/09/20 06:08:04;;;;;;;;;;;10.80;90.70;;;;;;5023304;28;20403;-73
2022/09/20 06:10:38;;;;;;;;;;;10.80;90.70;;;;;;5017102;28;19937;-71
2022/09/20 06:13:14;;;;;;;;;;;10.80;90.70;;;;;;5020028;28;20424;-74
2022/09/20 06:15:44;;;;;;;;;;;10.80;90.80;;;;;;5020083;28;19979;-74
2022/09/20 06:18:18;;;;;;;;;;;10.80;90.80;;;;;;5020530;28;19929;-73
2022/09/20 06:20:48;;;;;;;;;;;10.80;90.80;;;;;;5022590;28;19929;-70
2022/09/20 06:23:17;;;;;;;;;;;10.80;90.80;;;;;;5011415;28;19933;-75
2022/09/20 06:25:46;;;;;;;;;;;10.70;90.80;;;;;;5014319;28;19929;-76
2022/09/20 06:28:16;;;;;;;;;;;10.80;90.80;;;;;;5019563;28;20468;-76
2022/09/20 06:30:44;;;;;;;;;;;10.70;90.80;;;;;;5018954;28;19929;-75
2022/09/20 06:33:13;;;;;;;;;;;10.70;90.80;;;;;;5021152;28;19933;-75
2022/09/20 06:35:43;;;;;;;;;;;10.70;90.80;;;;;;5025510;28;19967;-75
2022/09/20 06:44:01;;;;;;;;;;;10.70;90.70;;;;;;4983964;28;20654;-75
2022/09/20 06:46:28;;;;;;;;;;;10.70;90.70;;;;;;5017510;28;20459;-75
2022/09/20 06:48:55;;;;;;;;;;;10.70;90.70;;;;;;5019744;28;20389;-74
2022/09/20 06:51:22;;;;;;;;;;;10.70;90.70;;;;;;5015008;28;19963;-75
2022/09/20 06:53:50;;;;;;;;;;;10.70;90.70;;;;;;5018427;28;20565;-76
2022/09/20 06:56:18;;;;;;;;;;;10.70;90.60;;;;;;5018676;28;20417;-76
2022/09/20 06:58:45;;;;;;;;;;;10.70;90.60;;;;;;5016680;28;19941;-74
2022/09/20 07:01:12;;;;;;;;;;;10.70;90.60;;;;;;5013544;28;19929;-75
2022/09/20 07:03:39;;;;;;;;;;;10.80;90.60;;;;;;5018044;28;19933;-75
2022/09/20 07:06:05;;;;;;;;;;;10.80;90.60;;;;;;5019545;28;19991;-74
2022/09/20 07:08:32;;;;;;;;;;;10.80;90.60;;;;;;5019431;28;19932;-74
2022/09/20 07:11:04;;;;;;;;;;;10.80;90.50;;;;;;5018444;28;19939;-75
2022/09/20 07:13:30;;;;;;;;;;;10.80;90.50;;;;;;5019084;28;19933;-75
2022/09/20 07:15:59;;;;;;;;;;;10.80;90.50;;;;;;5016728;28;19933;-74
2022/09/20 07:18:26;;;;;;;;;;;10.70;90.50;;;;;;5019173;28;20522;-76
2022/09/20 07:20:53;;;;;;;;;;;10.80;90.50;;;;;;5019520;28;20312;-76
2022/09/20 07:23:19;;;;;;;;;;;10.80;90.50;;;;;;5021909;28;19937;-73
2022/09/20 07:25:46;;;;;;;;;;;10.80;90.50;;;;;;5021355;28;19964;-75
2022/09/20 07:28:14;;;;;;;;;;;10.80;90.50;;;;;;5022909;28;20452;-75
2022/09/20 07:30:40;;;;;;;;;;;10.80;90.40;;;;;;5019540;28;19944;-76
2022/09/20 07:33:08;;;;;;;;;;;10.80;90.50;;;;;;5004800;28;19935;-74
2022/09/20 07:35:35;;;;;;;;;;;10.80;90.50;;;;;;5005313;28;19939;-70
2022/09/20 07:38:02;;;;;;;;;;;10.90;90.50;;;;;;5006145;28;19929;-69
2022/09/20 07:40:29;;;;;;;;;;;10.90;90.40;;;;;;5007626;28;20007;-70
2022/09/20 07:42:56;;;;;;;;;;;10.90;90.30;;;;;;5010746;28;19936;-69
2022/09/20 07:45:24;;;;;;;;;;;10.90;90.30;;;;;;5010018;28;19930;-70
2022/09/20 07:47:52;;;;;;;;;;;10.90;90.30;;;;;;5001784;28;19937;-72
2022/09/20 07:50:18;;;;;;;;;;;10.90;90.30;;;;;;5006180;28;19929;-77
2022/09/20 07:52:45;;;;;;;;;;;11.00;90.30;;;;;;5007181;28;19933;-77
2022/09/20 07:55:12;;;;;;;;;;;11.00;90.20;;;;;;5006773;28;19930;-78
2022/09/20 07:57:38;;;;;;;;;;;11.00;90.20;;;;;;5005509;28;19937;-78
2022/09/20 08:00:06;;;;;;;;;;;11.00;90.10;;;;;;5004334;28;19968;-78
2022/09/20 08:02:34;;;;;;;;;;;11.00;90.10;;;;;;5005600;28;19937;-77
2022/09/20 08:05:00;;;;;;;;;;;11.10;90.10;;;;;;5005860;28;20444;-78
2022/09/20 08:07:28;;;;;;;;;;;11.00;90.00;;;;;;5005057;28;20061;-78
2022/09/20 08:09:55;;;;;;;;;;;11.10;90.00;;;;;;5004575;28;19925;-78
2022/09/20 08:12:21;;;;;;;;;;;11.10;90.00;;;;;;5006678;28;19936;-79
2022/09/20 08:14:48;;;;;;;;;;;11.20;90.00;;;;;;5010380;28;19933;-77
2022/09/20 08:17:15;;;;;;;;;;;11.20;90.00;;;;;;5011842;28;19978;-78
2022/09/20 08:19:43;;;;;;;;;;;11.20;89.80;;;;;;5005345;28;19930;-78
2022/09/20 08:22:11;;;;;;;;;;;11.20;89.80;;;;;;5008609;28;20460;-77
2022/09/20 08:24:38;;;;;;;;;;;11.30;89.70;;;;;;5009637;28;19926;-77
2022/09/20 08:27:04;;;;;;;;;;;11.30;89.60;;;;;;5008750;28;20463;-78
2022/09/20 08:29:31;;;;;;;;;;;11.30;89.50;;;;;;5008262;28;19995;-77
2022/09/20 08:31:59;;;;;;;;;;;11.30;89.30;;;;;;5003843;28;19983;-78
2022/09/20 08:34:26;;;;;;;;;;;11.40;89.20;;;;;;5012186;28;19929;-77
2022/09/20 08:36:55;;;;;;;;;;;11.50;89.10;;;;;;5004577;28;19933;-78
2022/09/20 08:39:22;;;;;;;;;;;11.50;88.80;;;;;;5007609;28;19929;-78
2022/09/20 08:41:54;;;;;;;;;;;11.50;88.70;;;;;;5006323;28;19937;-78
2022/09/20 08:44:24;;;;;;;;;;;11.50;88.50;;;;;;5010749;28;19967;-77
2022/09/20 08:46:52;;;;;;;;;;;11.60;88.30;;;;;;5020993;28;20016;-78
2022/09/20 08:49:22;;;;;;;;;;;11.60;88.20;;;;;;5020488;28;19929;-77
2022/09/20 08:51:49;;;;;;;;;;;11.70;88.10;;;;;;5029836;28;19928;-78
2022/09/20 08:54:17;;;;;;;;;;;11.70;87.90;;;;;;5023519;28;20366;-78
2022/09/20 08:56:45;;;;;;;;;;;11.80;87.80;;;;;;5019461;28;19929;-77
2022/09/20 08:59:14;;;;;;;;;;;11.80;87.70;;;;;;5018850;28;19955;-77
2022/09/20 09:01:42;;;;;;;;;;;11.80;87.60;;;;;;5021244;28;19929;-78
2022/09/20 09:04:12;;;;;;;;;;;11.80;87.50;;;;;;5021939;28;19925;-77
2022/09/20 09:06:39;;;;;;;;;;;11.90;87.50;;;;;;5025767;28;21101;-77
2022/09/20 09:09:06;;;;;;;;;;;11.90;87.30;;;;;;5023903;28;19956;-77
2022/09/20 09:11:35;;;;;;;;;;;12.00;87.30;;;;;;5018361;28;19937;-77
2022/09/20 09:14:46;;;;;;;;;;;12.00;87.20;;;;;;5017980;28;20384;-74
2022/09/20 09:16:50;;;;;;;;;;;12.00;87.00;;;;;;5019349;28;19929;-76
2022/09/20 09:19:27;;;;;;;;;;;12.10;86.90;;;;;;5022183;28;19939;-76
2022/09/20 09:21:56;;;;;;;;;;;12.10;86.70;;;;;;5024716;28;19925;-77
2022/09/20 09:24:24;;;;;;;;;;;12.20;86.40;;;;;;5023653;28;19933;-76
2022/09/20 09:27:04;;;;;;;;;;;12.30;86.20;;;;;;5023404;28;20012;-76
2022/09/20 09:29:31;;;;;;;;;;;12.30;86.00;;;;;;5023449;28;20055;-77
2022/09/20 09:32:15;;;;;;;;;;;12.40;85.90;;;;;;5019596;28;20038;-77
2022/09/20 09:34:42;;;;;;;;;;;12.50;85.60;;;;;;5022391;28;19925;-76
2022/09/20 09:37:21;;;;;;;;;;;12.50;85.50;;;;;;5023164;28;19933;-79
2022/09/20 09:39:47;;;;;;;;;;;12.60;85.50;;;;;;5025640;28;19925;-79
2022/09/20 09:42:21;;;;;;;;;;;12.60;85.10;;;;;;5023700;28;19932;-79
2022/09/20 09:44:49;;;;;;;;;;;12.70;85.00;;;;;;5019219;28;20329;-79
2022/09/20 09:47:23;;;;;;;;;;;12.80;84.80;;;;;;5019933;28;20308;-78
2022/09/20 09:49:55;;;;;;;;;;;12.90;84.60;;;;;;5024400;28;19929;-79
2022/09/20 09:52:26;;;;;;;;;;;12.90;84.50;;;;;;5032704;28;19929;-79
2022/09/20 09:54:57;;;;;;;;;;;13.00;84.30;;;;;;5022830;28;19929;-80
2022/09/20 09:57:32;;;;;;;;;;;13.00;84.30;;;;;;5025382;28;20304;-80
2022/09/20 10:00:07;;;;;;;;;;;13.10;84.30;;;;;;5029095;28;19972;-78
2022/09/20 10:02:43;;;;;;;;;;;13.10;84.10;;;;;;5026226;28;20391;-79
2022/09/20 10:05:13;;;;;;;;;;;13.20;83.80;;;;;;5033593;28;19925;-80
2022/09/20 10:07:43;;;;;;;;;;;13.20;83.70;;;;;;5020298;28;19933;-81
2022/09/20 10:10:15;;;;;;;;;;;13.30;83.60;;;;;;5028936;28;19936;-79
2022/09/20 10:12:51;;;;;;;;;;;13.30;83.50;;;;;;5022421;28;19929;-79
2022/09/20 10:15:30;;;;;;;;;;;13.40;83.40;;;;;;5020961;28;20045;-79
2022/09/20 10:18:02;;;;;;;;;;;13.50;83.20;;;;;;5020750;28;19979;-77
2022/09/20 10:20:34;;;;;;;;;;;13.50;82.90;;;;;;5014069;28;19944;-78
2022/09/20 10:23:08;;;;;;;;;;;13.70;82.80;;;;;;5027039;28;19940;-78
2022/09/20 10:25:39;;;;;;;;;;;13.70;82.40;;;;;;5024024;28;19940;-79
2022/09/20 10:28:13;;;;;;;;;;;13.80;81.90;;;;;;5025459;28;20032;-79
2022/09/20 10:30:44;;;;;;;;;;;13.90;82.00;;;;;;5019045;28;20570;-78
2022/09/20 10:33:18;;;;;;;;;;;14.00;81.90;;;;;;5016259;28;19933;-78
2022/09/20 10:35:51;;;;;;;;;;;14.00;81.60;;;;;;5022015;28;20034;-80
2022/09/20 10:38:22;;;;;;;;;;;14.10;81.30;;;;;;5021356;28;19940;-76
2022/09/20 10:44:05;;;;;;;;;;;14.10;81.10;;;;;;5023202;28;19960;-77
2022/09/20 10:46:38;;;;;;;;;;;14.20;81.30;;;;;;5021192;28;19932;-81
2022/09/20 10:49:15;;;;;;;;;;;14.20;81.50;;;;;;5021029;28;20376;-82
2022/09/20 10:51:47;;;;;;;;;;;14.20;81.40;;;;;;5021884;28;20467;-81
2022/09/20 10:54:22;;;;;;;;;;;14.30;81.30;;;;;;5021868;28;20343;-80
2022/09/20 10:56:50;;;;;;;;;;;14.30;80.70;;;;;;5022930;28;19929;-82
2022/09/20 10:59:25;;;;;;;;;;;14.30;80.30;;;;;;5021805;28;19933;-78
2022/09/20 11:02:00;;;;;;;;;;;14.30;79.80;;;;;;5022819;28;20389;-78
2022/09/20 11:04:44;;;;;;;;;;;14.40;79.40;;;;;;5026246;28;19929;-70
2022/09/20 11:07:13;;;;;;;;;;;14.50;79.60;;;;;;5028439;28;19933;-70
2022/09/20 11:09:41;;;;;;;;;;;14.60;79.40;;;;;;5023974;28;20377;-70
2022/09/20 11:12:12;;;;;;;;;;;14.70;79.30;;;;;;5025248;28;19976;-72
2022/09/20 11:14:41;;;;;;;;;;;14.70;79.70;;;;;;5024833;28;19929;-69
2022/09/20 11:17:12;;;;;;;;;;;14.80;79.90;;;;;;5018997;28;20684;-78
2022/09/20 11:19:46;;;;;;;;;;;14.80;79.80;;;;;;5022497;28;19937;-79
2022/09/20 11:22:16;;;;;;;;;;;14.80;80.30;;;;;;5023271;28;20365;-77
2022/09/20 11:24:45;;;;;;;;;;;14.80;79.90;;;;;;5020040;28;19929;-77
2022/09/20 11:27:14;;;;;;;;;;;14.80;78.30;;;;;;5021473;28;19939;-77
2022/09/20 11:29:43;;;;;;;;;;;14.90;78.60;;;;;;5022240;28;20457;-78
2022/09/20 11:32:13;;;;;;;;;;;14.90;76.90;;;;;;5007372;28;20012;-78
2022/09/20 11:34:44;;;;;;;;;;;14.90;77.60;;;;;;5003592;28;19929;-77
2022/09/20 11:37:11;;;;;;;;;;;15.00;77.40;;;;;;5004931;28;20621;-78
2022/09/20 11:39:39;;;;;;;;;;;15.10;77.40;;;;;;4999456;28;19960;-76
2022/09/20 11:42:07;;;;;;;;;;;15.10;77.10;;;;;;4999340;28;19932;-77
2022/09/20 11:44:38;;;;;;;;;;;15.10;78.10;;;;;;5004400;28;19983;-77
2022/09/20 11:47:07;;;;;;;;;;;15.20;77.40;;;;;;5016649;28;19968;-76
2022/09/20 11:49:38;;;;;;;;;;;15.20;77.30;;;;;;5022656;28;19950;-77
2022/09/20 11:52:29;;;;;;;;;;;15.20;79.50;;;;;;5024822;28;20355;-77
2022/09/20 11:55:06;;;;;;;;;;;15.20;79.90;;;;;;5022686;28;20357;-77
2022/09/20 11:57:32;;;;;;;;;;;15.20;79.00;;;;;;5024701;28;19937;-78
2022/09/20 12:00:01;;;;;;;;;;;15.20;77.80;;;;;;5021624;28;19940;-77
2022/09/20 12:02:32;;;;;;;;;;;15.20;78.60;;;;;;5022050;28;20010;-76
2022/09/20 12:05:00;;;;;;;;;;;15.20;78.40;;;;;;5024430;28;20316;-76
2022/09/20 12:07:31;;;;;;;;;;;15.20;79.80;;;;;;5024066;28;20420;-77
2022/09/20 12:09:59;;;;;;;;;;;15.20;80.20;;;;;;5020914;28;20670;-78
2022/09/20 12:12:30;;;;;;;;;;;15.20;81.70;;;;;;5024801;28;19933;-77
2022/09/20 12:14:58;;;;;;;;;;;15.10;81.50;;;;;;5028058;28;19929;-77
2022/09/20 12:17:43;;;;;;;;;;;15.10;83.80;;;;;;5022124;28;19936;-77
2022/09/20 12:20:24;;;;;;;;;;;15.10;81.90;;;;;;5018746;28;19937;-78
2022/09/20 12:22:52;;;;;;;;;;;15.10;81.30;;;;;;5020832;28;20373;-76
2022/09/20 12:25:35;;;;;;;;;;;15.10;80.80;;;;;;5022224;28;19940;-75
2022/09/20 12:28:04;;;;;;;;;;;15.10;81.00;;;;;;5022293;28;19937;-77
2022/09/20 12:30:32;;;;;;;;;;;15.10;81.10;;;;;;5020492;28;19939;-76
2022/09/20 12:33:02;;;;;;;;;;;15.00;81.40;;;;;;5025647;28;19929;-77
2022/09/20 12:35:56;;;;;;;;;;;15.00;81.30;;;;;;5023345;28;20011;-76
2022/09/20 12:38:41;;;;;;;;;;;15.00;81.90;;;;;;5023629;28;19968;-77
2022/09/20 12:41:10;;;;;;;;;;;14.90;82.30;;;;;;5010576;28;19933;-77
2022/09/20 12:43:39;;;;;;;;;;;14.90;83.10;;;;;;5023534;28;19929;-77
2022/09/20 12:46:05;;;;;;;;;;;14.90;83.60;;;;;;5021866;28;20012;-77
2022/09/20 12:48:34;;;;;;;;;;;14.90;83.00;;;;;;5019504;28;19928;-77
2022/09/20 12:53:58;;;;;;;;;;;14.90;83.50;;;;;;5018196;28;19979;-77
2022/09/20 12:56:26;;;;;;;;;;;14.90;83.90;;;;;;5023805;28;19939;-76
2022/09/20 12:58:54;;;;;;;;;;;14.90;84.00;;;;;;5024857;28;19928;-76
2022/09/20 13:01:32;;;;;;;;;;;14.80;83.90;;;;;;5023815;28;20557;-77
2022/09/20 13:04:17;;;;;;;;;;;14.80;83.70;;;;;;5024530;28;19933;-77
2022/09/20 13:06:44;;;;;;;;;;;14.80;83.80;;;;;;5024553;28;19975;-76
2022/09/20 13:09:12;;;;;;;;;;;14.80;83.60;;;;;;5023655;28;19936;-76
2022/09/20 13:11:42;;;;;;;;;;;14.90;83.80;;;;;;5018219;28;20055;-77
2022/09/20 13:14:11;;;;;;;;;;;14.80;83.60;;;;;;5018670;28;19933;-77
2022/09/20 13:16:41;;;;;;;;;;;14.90;83.40;;;;;;5026203;28;19925;-76
2022/09/20 13:19:14;;;;;;;;;;;14.80;83.50;;;;;;5023831;28;19932;-76
2022/09/20 13:21:45;;;;;;;;;;;14.90;83.40;;;;;;5021939;28;19925;-77
2022/09/20 13:24:15;;;;;;;;;;;14.90;83.20;;;;;;5016914;28;19964;-77
2022/09/20 13:26:44;;;;;;;;;;;14.90;83.50;;;;;;5017998;28;19936;-77
2022/09/20 13:29:20;;;;;;;;;;;14.90;83.60;;;;;;5021755;28;19929;-77
2022/09/20 13:31:47;;;;;;;;;;;15.00;83.50;;;;;;5004668;28;19933;-71
2022/09/20 13:34:21;;;;;;;;;;;15.00;83.40;;;;;;4997499;28;20008;-71
2022/09/20 13:36:48;;;;;;;;;;;15.10;82.80;;;;;;5003191;28;20389;-70
2022/09/20 13:39:27;;;;;;;;;;;15.10;82.50;;;;;;5003492;28;19929;-73
2022/09/20 13:42:01;;;;;;;;;;;15.10;82.40;;;;;;5001817;28;19933;-71
2022/09/20 13:44:27;;;;;;;;;;;15.20;82.50;;;;;;4999018;28;19926;-71
2022/09/20 13:46:54;;;;;;;;;;;15.30;81.90;;;;;;5003042;28;19930;-71
2022/09/20 13:49:22;;;;;;;;;;;15.30;81.50;;;;;;5009360;28;19925;-70
2022/09/20 13:51:49;;;;;;;;;;;15.40;81.10;;;;;;4998496;28;20474;-68
2022/09/20 13:54:20;;;;;;;;;;;15.50;80.70;;;;;;5006161;28;19933;-71
2022/09/20 13:56:47;;;;;;;;;;;15.50;80.40;;;;;;5003161;28;19929;-71
2022/09/20 13:59:18;;;;;;;;;;;15.60;79.50;;;;;;4997575;28;21327;-66
2022/09/20 14:01:48;;;;;;;;;;;15.60;79.00;;;;;;5003701;28;19934;-71
2022/09/20 14:04:16;;;;;;;;;;;15.70;79.10;;;;;;5004332;28;20318;-70
2022/09/20 14:06:43;;;;;;;;;;;15.80;78.60;;;;;;5008114;28;20440;-71
2022/09/20 14:09:27;;;;;;;;;;;15.90;77.70;;;;;;5000335;28;19933;-69
2022/09/20 14:11:54;;;;;;;;;;;15.90;76.70;;;;;;4999562;28;19973;-70
2022/09/20 14:14:23;;;;;;;;;;;16.00;78.30;;;;;;5000198;28;19937;-70
2022/09/20 14:16:50;;;;;;;;;;;16.10;77.50;;;;;;5013041;28;19992;-70
2022/09/20 14:19:18;;;;;;;;;;;16.10;76.20;;;;;;5016123;28;19933;-69
2022/09/20 14:21:45;;;;;;;;;;;16.20;75.20;;;;;;5023917;28;20019;-70
2022/09/20 14:24:25;;;;;;;;;;;16.20;77.00;;;;;;5015858;28;19933;-76
2022/09/20 14:27:00;;;;;;;;;;;16.30;78.80;;;;;;5019492;28;19929;-75
2022/09/20 14:29:37;;;;;;;;;;;16.30;80.20;;;;;;5020322;28;19940;-76
2022/09/20 14:32:06;;;;;;;;;;;16.30;79.70;;;;;;5002477;28;19933;-76
2022/09/20 14:34:35;;;;;;;;;;;16.30;79.70;;;;;;5004925;28;19929;-75
2022/09/20 14:37:04;;;;;;;;;;;16.30;79.50;;;;;;5000638;28;19937;-76
2022/09/20 14:39:31;;;;;;;;;;;16.20;79.70;;;;;;4998704;28;20071;-76
2022/09/20 14:41:57;;;;;;;;;;;16.20;80.80;;;;;;5002000;28;19974;-76
2022/09/20 14:44:26;;;;;;;;;;;16.20;83.00;;;;;;4995837;28;19929;-76
2022/09/20 14:46:54;;;;;;;;;;;16.10;83.20;;;;;;5001354;28;19991;-76
2022/09/20 14:49:32;;;;;;;;;;;16.10;84.40;;;;;;5001444;28;19940;-76
2022/09/20 14:52:16;;;;;;;;;;;16.10;84.60;;;;;;4998700;28;20018;-76
2022/09/20 14:54:43;;;;;;;;;;;16.00;83.50;;;;;;4987119;28;19933;-75